Time;durP1;ratioP1;P1;durP2;ratioP2;P2;SDS_P1;SDS_P2;PMS_P1;PMS_P2;Temp;Humidity;BMP_temperature;BMP_pressure;BME280_temperature;BME280_humidity;BME280_pressure;Samples;Min_cycle;Max_cycle;Signal;HPM_P1;HPM_P2
2022/11/05 00:10:00;;;;;;;36.42;5.80;;;6.30;99.90;;;;;;5038388;28;20100;-72
2022/11/05 00:17:54;;;;;;;9.10;3.60;;;6.10;99.90;;;;;;5042430;28;20136;-71
2022/11/05 00:20:20;;;;;;;8.30;3.70;;;6.00;99.90;;;;;;5079410;28;20157;-72
2022/11/05 00:25:30;;;;;;;76.47;7.80;;;5.90;99.90;;;;;;5045031;28;20052;-71
2022/11/05 00:28:00;;;;;;;184.13;12.75;;;5.90;99.90;;;;;;5080265;28;20124;-72
2022/11/05 00:30:27;;;;;;;69.22;5.72;;;5.90;99.90;;;;;;5046425;28;20056;-72
2022/11/05 00:32:53;;;;;;;12.45;4.03;;;5.80;99.90;;;;;;5075540;28;20119;-72
2022/11/05 00:35:21;;;;;;;12.75;4.43;;;5.80;99.90;;;;;;5045947;28;20649;-71
2022/11/05 00:37:47;;;;;;;7.60;3.40;;;5.80;99.90;;;;;;5046467;28;20167;-72
2022/11/05 00:40:13;;;;;;;;;;;5.80;99.90;;;;;;5047185;28;20049;-71
2022/11/05 00:45:28;;;;;;;6.95;3.75;;;5.70;99.90;;;;;;5039899;28;20096;-72
2022/11/05 00:50:38;;;;;;;9.48;2.95;;;5.90;99.90;;;;;;5028105;28;20053;-72
2022/11/05 00:53:04;;;;;;;10.55;4.10;;;5.90;99.90;;;;;;5029538;28;20699;-72
2022/11/05 00:55:36;;;;;;;10.23;3.53;;;5.90;99.90;;;;;;5033271;28;20174;-71
2022/11/05 00:58:05;;;;;;;11.00;3.97;;;6.00;99.90;;;;;;5039016;28;20053;-72
2022/11/05 01:00:33;;;;;;;7.35;3.60;;;6.00;99.90;;;;;;5030617;28;20482;-72
2022/11/05 01:03:01;;;;;;;7.07;3.22;;;6.10;99.90;;;;;;5039437;28;20099;-72
2022/11/05 01:05:28;;;;;;;7.13;3.58;;;6.10;99.90;;;;;;5049732;28;20132;-72
2022/11/05 01:07:54;;;;;;;7.40;3.22;;;6.10;99.90;;;;;;5069384;28;20040;-72
2022/11/05 01:10:20;;;;;;;11.35;3.72;;;6.10;99.90;;;;;;5039185;28;20364;-72
2022/11/05 01:12:46;;;;;;;8.68;3.47;;;6.20;99.90;;;;;;5049552;28;20053;-72
2022/11/05 01:15:11;;;;;;;8.13;3.67;;;6.20;99.90;;;;;;5032791;28;20124;-72
2022/11/05 01:17:37;;;;;;;7.60;3.28;;;6.20;99.90;;;;;;5033774;28;20037;-72
2022/11/05 01:20:03;;;;;;;8.90;3.85;;;6.30;99.90;;;;;;5038954;28;20453;-72
2022/11/05 01:22:29;;;;;;;9.65;4.18;;;6.30;99.90;;;;;;5051419;28;20068;-72
2022/11/05 01:24:54;;;;;;;6.05;3.20;;;6.50;99.90;;;;;;5038711;28;20514;-72
2022/11/05 01:27:20;;;;;;;5.85;2.95;;;6.30;99.90;;;;;;5043200;28;20052;-72
2022/11/05 01:29:46;;;;;;;5.50;3.22;;;6.20;99.90;;;;;;5064960;28;20276;-72
2022/11/05 01:32:11;;;;;;;7.97;3.03;;;6.20;99.90;;;;;;5031548;28;20060;-72
2022/11/05 01:34:37;;;;;;;6.50;3.35;;;6.10;99.90;;;;;;5075645;28;20049;-72
2022/11/05 01:37:03;;;;;;;5.55;3.25;;;6.00;99.90;;;;;;5053629;28;20044;-72
2022/11/05 01:39:28;;;;;;;5.70;3.08;;;6.00;99.90;;;;;;5053240;28;20056;-72
2022/11/05 01:41:54;;;;;;;6.95;3.20;;;5.90;99.90;;;;;;5053703;28;20049;-72
2022/11/05 01:44:52;;;;;;;7.75;3.50;;;5.90;99.90;;;;;;5052401;28;20048;-72
2022/11/05 01:48:03;;;;;;;9.65;3.63;;;5.80;99.90;;;;;;5030294;28;20084;-72
2022/11/05 01:50:41;;;;;;;9.05;3.50;;;5.70;99.90;;;;;;5029758;28;20503;-72
2022/11/05 01:53:16;;;;;;;8.82;3.22;;;5.70;99.90;;;;;;5053184;28;20040;-72
2022/11/05 01:56:15;;;;;;;8.85;3.80;;;5.70;99.90;;;;;;5053063;28;20617;-72
2022/11/05 01:58:47;;;;;;;8.25;3.20;;;5.70;99.90;;;;;;5052408;28;20079;-72
2022/11/05 02:01:14;;;;;;;8.57;3.60;;;5.70;99.90;;;;;;5047644;28;20041;-72
2022/11/05 02:03:41;;;;;;;7.50;3.00;;;5.70;99.90;;;;;;5032713;28;20045;-72
2022/11/05 02:06:10;;;;;;;6.63;3.03;;;5.80;99.90;;;;;;5030787;28;20569;-73
2022/11/05 02:08:48;;;;;;;7.20;2.78;;;5.80;99.90;;;;;;5032955;28;20204;-72
2022/11/05 02:11:17;;;;;;;5.05;2.72;;;5.70;99.90;;;;;;5044419;28;20053;-72
2022/11/05 02:13:43;;;;;;;6.65;2.50;;;5.70;99.90;;;;;;5052905;28;20045;-72
2022/11/05 02:16:30;;;;;;;10.02;2.85;;;5.60;99.90;;;;;;5052264;28;20051;-73
2022/11/05 02:19:16;;;;;;;5.50;2.83;;;5.60;99.90;;;;;;5051539;28;20517;-72
2022/11/05 02:21:44;;;;;;;6.40;3.03;;;5.60;99.90;;;;;;5052853;28;20084;-72
2022/11/05 02:24:27;;;;;;;6.25;3.22;;;5.70;99.90;;;;;;5052322;28;20380;-73
2022/11/05 02:27:24;;;;;;;7.50;2.92;;;5.70;99.90;;;;;;5052815;28;20132;-72
2022/11/05 02:30:02;;;;;;;5.30;2.77;;;5.70;99.90;;;;;;5084755;28;20055;-72
2022/11/05 02:32:57;;;;;;;12.40;3.58;;;5.80;99.90;;;;;;5050654;28;20052;-72
2022/11/05 02:35:43;;;;;;;10.38;3.22;;;5.70;99.90;;;;;;5047504;28;20068;-72
2022/11/05 02:38:15;;;;;;;8.23;3.10;;;5.80;99.90;;;;;;5032381;28;20110;-73
2022/11/05 02:40:54;;;;;;;6.43;3.28;;;5.80;99.90;;;;;;5038578;28;20198;-72
2022/11/05 02:43:40;;;;;;;7.30;2.83;;;5.70;99.90;;;;;;5051941;28;20091;-71
2022/11/05 02:46:20;;;;;;;6.22;3.00;;;5.70;99.90;;;;;;5067486;28;20102;-72
2022/11/05 02:48:51;;;;;;;6.28;2.78;;;5.70;99.90;;;;;;5052080;28;20048;-72
2022/11/05 02:51:34;;;;;;;6.88;2.75;;;5.70;99.90;;;;;;5050698;28;20140;-72
2022/11/05 02:54:11;;;;;;;8.68;2.97;;;5.70;99.90;;;;;;5067910;28;20040;-72
2022/11/05 02:56:41;;;;;;;6.22;2.55;;;5.60;99.90;;;;;;5045512;28;20073;-72
2022/11/05 02:59:07;;;;;;;5.13;2.65;;;5.60;99.90;;;;;;5046139;28;20722;-72
2022/11/05 03:01:35;;;;;;;6.85;2.58;;;5.70;99.90;;;;;;5050503;28;20039;-72
2022/11/05 03:04:05;;;;;;;10.35;3.05;;;5.60;99.90;;;;;;5050393;28;20502;-72
2022/11/05 03:06:40;;;;;;;9.30;2.85;;;5.60;99.90;;;;;;5050858;28;20112;-72
2022/11/05 03:09:11;;;;;;;6.55;2.63;;;5.60;99.90;;;;;;5052081;28;20111;-72
2022/11/05 03:11:49;;;;;;;7.57;2.92;;;5.50;99.90;;;;;;5051551;28;20048;-72
2022/11/05 03:14:42;;;;;;;7.07;2.92;;;5.50;99.90;;;;;;5048138;28;20052;-73
2022/11/05 03:17:14;;;;;;;7.10;3.20;;;5.50;99.90;;;;;;5031896;28;20139;-72
2022/11/05 03:20:18;;;;;;;9.25;3.33;;;5.40;99.90;;;;;;5040659;28;20071;-72
2022/11/05 03:22:53;;;;;;;13.40;3.38;;;5.40;99.90;;;;;;5043556;28;20056;-72
2022/11/05 03:25:22;;;;;;;13.15;3.65;;;5.40;99.90;;;;;;5049851;28;20053;-72
2022/11/05 03:27:58;;;;;;;8.98;2.97;;;5.40;99.90;;;;;;5033345;28;20045;-71
2022/11/05 03:30:24;;;;;;;7.28;3.22;;;5.40;99.90;;;;;;5030268;28;20056;-72
2022/11/05 03:32:56;;;;;;;6.95;2.40;;;5.40;99.90;;;;;;5045911;28;20496;-72
2022/11/05 03:35:26;;;;;;;7.75;2.88;;;5.40;99.90;;;;;;5048196;28;20061;-72
2022/11/05 03:37:59;;;;;;;5.95;2.78;;;5.30;99.90;;;;;;5051544;28;20052;-71
2022/11/05 03:40:27;;;;;;;12.50;3.60;;;5.30;99.90;;;;;;5031147;28;20499;-72
2022/11/05 03:42:56;;;;;;;9.10;3.33;;;5.30;99.90;;;;;;5030193;28;20415;-72
2022/11/05 03:45:40;;;;;;;5.78;2.92;;;5.50;99.90;;;;;;5030065;28;20049;-72
2022/11/05 03:48:09;;;;;;;8.50;3.05;;;5.50;99.90;;;;;;5032756;28;20060;-72
2022/11/05 03:51:03;;;;;;;11.50;3.65;;;5.50;99.90;;;;;;5047702;28;20045;-73
2022/11/05 03:53:33;;;;;;;5.93;3.30;;;5.50;99.90;;;;;;5050474;28;20098;-71
2022/11/05 03:56:09;;;;;;;7.00;2.47;;;5.50;99.90;;;;;;5051051;28;20052;-72
2022/11/05 03:58:35;;;;;;;6.00;2.72;;;5.40;99.90;;;;;;5047897;28;20041;-72
2022/11/05 04:01:02;;;;;;;5.10;2.60;;;5.30;99.90;;;;;;5036214;28;20124;-72
2022/11/05 04:03:34;;;;;;;11.55;2.72;;;5.40;99.90;;;;;;5050307;28;20049;-72
2022/11/05 04:14:15;;;;;;;4.70;2.25;;;5.00;99.90;;;;;;5029923;28;20526;-73
2022/11/05 04:24:54;;;;;;;9.85;2.95;;;4.90;99.90;;;;;;5038096;28;20487;-71
2022/11/05 04:27:19;;;;;;;6.93;3.10;;;4.60;99.90;;;;;;5030239;28;20048;-72
2022/11/05 04:32:29;;;;;;;5.07;2.25;;;4.60;99.90;;;;;;5042963;28;20048;-72
2022/11/05 04:34:55;;;;;;;11.45;2.33;;;4.50;99.90;;;;;;5043803;28;20738;-72
2022/11/05 04:37:20;;;;;;;9.98;2.13;;;4.50;99.90;;;;;;5050043;28;20391;-72
2022/11/05 04:39:46;;;;;;;4.18;2.45;;;4.50;99.90;;;;;;5047180;28;20149;-72
2022/11/05 04:42:12;;;;;;;7.55;2.28;;;4.50;99.90;;;;;;5066162;28;20094;-72
2022/11/05 04:44:37;;;;;;;8.02;2.63;;;4.50;99.90;;;;;;5048345;28;20040;-71
2022/11/05 04:47:03;;;;;;;9.48;2.50;;;4.50;99.90;;;;;;5050385;28;20157;-72
2022/11/05 04:49:28;;;;;;;6.22;2.30;;;4.50;99.90;;;;;;5047458;28;20611;-72
2022/11/05 04:51:54;;;;;;;6.43;3.20;;;4.80;99.90;;;;;;5050402;28;20079;-72
2022/11/05 04:54:20;;;;;;;7.15;2.70;;;4.60;99.90;;;;;;5049840;28;20481;-72
2022/11/05 04:56:45;;;;;;;5.20;2.72;;;4.60;99.90;;;;;;5065541;28;20496;-71
2022/11/05 04:59:11;;;;;;;10.95;2.90;;;4.60;99.90;;;;;;5049676;28;20068;-72
2022/11/05 05:01:37;;;;;;;7.57;2.75;;;4.70;99.90;;;;;;5049655;28;20453;-72
2022/11/05 05:04:02;;;;;;;6.70;2.85;;;4.80;99.90;;;;;;5050446;28;20076;-72
2022/11/05 05:06:28;;;;;;;8.82;3.13;;;4.70;99.90;;;;;;5047221;28;20610;-71
2022/11/05 05:08:54;;;;;;;6.00;2.95;;;4.70;99.90;;;;;;5046210;28;20041;-71
2022/11/05 05:11:20;;;;;;;6.10;2.80;;;4.70;99.90;;;;;;5049660;28;20550;-71
2022/11/05 05:13:46;;;;;;;5.57;2.17;;;4.60;99.90;;;;;;5048428;28;20049;-72
2022/11/05 05:16:24;;;;;;;6.85;2.67;;;4.60;99.90;;;;;;5049809;28;20070;-71
2022/11/05 05:18:50;;;;;;;9.43;2.67;;;4.50;99.90;;;;;;5048970;28;20157;-72
2022/11/05 05:24:02;;;;;;;5.43;2.95;;;4.50;99.90;;;;;;5049201;28;20068;-71
2022/11/05 05:26:28;;;;;;;;;;;4.40;99.90;;;;;;5037852;28;20453;-72
2022/11/05 05:28:53;;;;;;;5.60;2.50;;;4.60;99.90;;;;;;5048575;28;19942;-71
2022/11/05 05:31:20;;;;;;;7.63;2.88;;;4.40;99.90;;;;;;5048519;28;20041;-71
2022/11/05 05:33:46;;;;;;;5.03;2.50;;;4.60;99.90;;;;;;5048528;28;20509;-72
2022/11/05 05:36:12;;;;;;;6.00;2.30;;;4.30;99.90;;;;;;5047348;28;20053;-72
2022/11/05 05:38:38;;;;;;;8.95;2.78;;;4.30;99.90;;;;;;5049311;28;20057;-71
2022/11/05 05:41:03;;;;;;;4.78;2.30;;;4.30;99.90;;;;;;5048832;28;20060;-71
2022/11/05 05:43:33;;;;;;;7.47;2.72;;;4.20;99.90;;;;;;5049208;28;20128;-72
2022/11/05 05:46:06;;;;;;;6.20;2.58;;;4.20;99.90;;;;;;5044056;28;20077;-71
2022/11/05 05:48:33;;;;;;;5.70;2.70;;;4.20;99.90;;;;;;5029105;28;20498;-71
2022/11/05 05:51:07;;;;;;;5.13;2.25;;;4.30;99.90;;;;;;5048146;28;20059;-71
2022/11/05 05:53:33;;;;;;;11.10;3.97;;;4.20;99.90;;;;;;5031940;28;20146;-72
2022/11/05 05:55:59;;;;;;;9.65;3.05;;;4.20;99.90;;;;;;5033289;28;20050;-71
2022/11/05 05:58:30;;;;;;;8.25;2.60;;;4.20;99.90;;;;;;5033309;28;20046;-72
2022/11/05 06:01:00;;;;;;;4.90;2.40;;;4.30;99.90;;;;;;5031761;28;20132;-72
2022/11/05 06:03:25;;;;;;;3.45;2.20;;;4.30;99.90;;;;;;5033141;28;20123;-72
2022/11/05 06:05:51;;;;;;;5.20;2.72;;;4.20;99.90;;;;;;5030224;28;20408;-71
2022/11/05 06:08:17;;;;;;;5.65;2.45;;;4.10;99.90;;;;;;5033141;28;20577;-72
2022/11/05 06:10:50;;;;;;;7.40;3.13;;;4.10;99.90;;;;;;5033094;28;20399;-71
2022/11/05 06:13:15;;;;;;;7.65;2.88;;;4.10;99.90;;;;;;5033164;28;20059;-71
2022/11/05 06:15:41;;;;;;;8.13;3.05;;;4.20;99.90;;;;;;5037323;28;20066;-71
2022/11/05 06:18:07;;;;;;;6.43;2.90;;;4.10;99.90;;;;;;5053024;28;20620;-71
2022/11/05 06:20:32;;;;;;;4.88;2.60;;;4.20;99.90;;;;;;5050091;28;20491;-72
2022/11/05 06:22:58;;;;;;;9.57;3.47;;;4.30;99.90;;;;;;5050099;28;20041;-71
2022/11/05 06:25:24;;;;;;;6.80;3.38;;;4.50;99.90;;;;;;5052724;28;20136;-72
2022/11/05 06:27:51;;;;;;;8.32;3.60;;;4.70;99.90;;;;;;5045715;28;20069;-72
2022/11/05 06:30:17;;;;;;;11.68;3.20;;;4.40;99.90;;;;;;5032276;28;20041;-71
2022/11/05 06:32:43;;;;;;;8.23;3.20;;;4.50;99.90;;;;;;5034424;28;20154;-71
2022/11/05 06:35:09;;;;;;;;;;;4.40;99.90;;;;;;5047210;28;20084;-72
2022/11/05 06:37:35;;;;;;;8.43;3.53;;;4.60;99.90;;;;;;5034630;28;19975;-71
2022/11/05 06:40:00;;;;;;;8.10;3.17;;;4.40;99.90;;;;;;5032641;28;20042;-72
2022/11/05 06:42:26;;;;;;;7.30;3.08;;;4.50;99.90;;;;;;5034297;28;20046;-72
2022/11/05 06:44:52;;;;;;;10.93;3.85;;;4.50;99.90;;;;;;5066622;28;20048;-71
2022/11/05 06:47:18;;;;;;;10.63;3.67;;;4.50;99.90;;;;;;5051080;28;20083;-72
2022/11/05 06:49:45;;;;;;;9.95;3.83;;;4.60;99.90;;;;;;5045306;28;20081;-71
2022/11/05 06:52:11;;;;;;;7.97;3.40;;;4.70;99.90;;;;;;5038229;28;20095;-72
2022/11/05 06:54:37;;;;;;;11.20;4.00;;;4.80;99.90;;;;;;5031086;28;20049;-72
2022/11/05 06:57:03;;;;;;;10.10;3.47;;;4.90;99.90;;;;;;5032202;28;20067;-72
2022/11/05 06:59:29;;;;;;;6.95;3.65;;;4.90;99.90;;;;;;5077069;28;20123;-72
2022/11/05 07:01:55;;;;;;;7.00;3.42;;;5.10;99.90;;;;;;5030520;28;20044;-71
2022/11/05 07:04:20;;;;;;;7.78;3.35;;;5.10;99.90;;;;;;5029579;28;20045;-72
2022/11/05 07:06:46;;;;;;;5.47;3.25;;;5.10;99.90;;;;;;5048666;28;20037;-72
2022/11/05 07:09:12;;;;;;;9.40;3.10;;;5.20;99.90;;;;;;5051669;28;20102;-72
2022/11/05 07:11:37;;;;;;;6.25;2.95;;;5.10;99.90;;;;;;5051375;28;20477;-72
2022/11/05 07:14:03;;;;;;;4.68;2.63;;;5.10;99.90;;;;;;5051610;28;20057;-72
2022/11/05 07:16:29;;;;;;;9.25;4.38;;;5.00;99.90;;;;;;5045937;28;20506;-72
2022/11/05 07:18:54;;;;;;;9.38;3.08;;;5.10;99.90;;;;;;5028897;28;20118;-72
2022/11/05 07:21:21;;;;;;;8.90;3.47;;;5.00;99.90;;;;;;5069108;28;20087;-71
2022/11/05 07:23:46;;;;;;;;;;;5.00;99.90;;;;;;5040159;28;20077;-72
2022/11/05 07:26:12;;;;;;;8.93;4.28;;;4.90;99.90;;;;;;5035038;28;19968;-71
2022/11/05 07:28:38;;;;;;;6.82;3.78;;;4.90;99.90;;;;;;5049650;28;20056;-72
2022/11/05 07:31:03;;;;;;;10.32;4.50;;;5.00;99.90;;;;;;5051410;28;20084;-71
2022/11/05 07:33:29;;;;;;;13.43;4.05;;;5.10;99.90;;;;;;5050208;28;20044;-72
2022/11/05 07:35:56;;;;;;;10.10;4.15;;;5.10;99.90;;;;;;5040684;28;20045;-72
2022/11/05 07:38:22;;;;;;;8.68;4.38;;;5.20;99.90;;;;;;5031453;28;20410;-71
2022/11/05 07:40:48;;;;;;;13.05;3.58;;;5.20;99.90;;;;;;5050366;28;20049;-72
2022/11/05 07:43:15;;;;;;;10.30;4.13;;;5.40;99.90;;;;;;5051414;28;20060;-71
2022/11/05 07:45:40;;;;;;;9.55;3.80;;;5.30;99.90;;;;;;5049078;28;20053;-71
2022/11/05 07:48:06;;;;;;;12.38;3.88;;;5.30;99.90;;;;;;5050961;28;20075;-72
2022/11/05 07:50:34;;;;;;;10.40;3.83;;;5.40;99.90;;;;;;5049190;28;20505;-71
2022/11/05 07:53:09;;;;;;;7.18;3.42;;;5.40;99.90;;;;;;5050800;28;20127;-70
2022/11/05 07:55:36;;;;;;;8.35;3.65;;;5.40;99.90;;;;;;5049703;28;20049;-72
2022/11/05 07:58:02;;;;;;;11.00;4.43;;;5.50;99.90;;;;;;5048383;28;20102;-71
2022/11/05 08:00:28;;;;;;;9.30;3.63;;;5.60;99.90;;;;;;5049317;28;20049;-71
2022/11/05 08:03:10;;;;;;;12.23;3.58;;;5.60;99.90;;;;;;5050424;28;20060;-70
2022/11/05 08:05:38;;;;;;;9.88;3.88;;;5.70;99.90;;;;;;5047515;28;20056;-71
2022/11/05 08:08:08;;;;;;;10.23;3.72;;;5.80;99.90;;;;;;5031142;28;20106;-70
2022/11/05 08:10:34;;;;;;;9.52;3.97;;;5.80;99.90;;;;;;5037032;28;20104;-70
2022/11/05 08:13:01;;;;;;;12.63;3.70;;;5.90;99.90;;;;;;5069908;28;20045;-71
2022/11/05 08:15:27;;;;;;;11.77;4.75;;;5.90;99.90;;;;;;5049460;28;20534;-70
2022/11/05 08:17:59;;;;;;;7.90;3.80;;;5.90;99.90;;;;;;5048639;28;20175;-70
2022/11/05 08:20:26;;;;;;;12.50;4.32;;;6.00;99.90;;;;;;5052387;28;20054;-70
2022/11/05 08:22:52;;;;;;;10.20;3.92;;;6.20;99.90;;;;;;5036395;28;20102;-70
2022/11/05 08:25:18;;;;;;;12.07;5.57;;;6.30;99.90;;;;;;5049417;28;20053;-70
2022/11/05 08:27:44;;;;;;;11.77;4.22;;;6.50;99.90;;;;;;5049847;28;20056;-70
2022/11/05 08:30:10;;;;;;;8.68;3.92;;;6.60;99.90;;;;;;5048869;28;20537;-70
2022/11/05 08:32:36;;;;;;;10.45;4.50;;;6.70;99.90;;;;;;5056683;28;20056;-70
2022/11/05 08:35:02;;;;;;;11.10;4.22;;;7.10;99.90;;;;;;5045883;28;20045;-70
2022/11/05 08:37:28;;;;;;;8.90;4.13;;;7.00;99.90;;;;;;5049984;28;20045;-70
2022/11/05 08:39:53;;;;;;;9.98;3.95;;;7.20;99.90;;;;;;5049763;28;20049;-70
2022/11/05 08:42:19;;;;;;;6.65;3.40;;;7.20;99.90;;;;;;5047111;28;20057;-71
2022/11/05 08:44:45;;;;;;;10.82;4.05;;;7.20;99.90;;;;;;5049106;28;20128;-75
2022/11/05 08:47:10;;;;;;;10.05;4.25;;;7.30;99.90;;;;;;5044341;28;20179;-75
2022/11/05 08:49:36;;;;;;;6.53;3.45;;;7.40;99.90;;;;;;5030303;28;20114;-75
2022/11/05 08:52:02;;;;;;;6.47;3.40;;;7.50;99.90;;;;;;5065000;28;20040;-74
2022/11/05 08:54:28;;;;;;;10.10;3.92;;;7.60;99.90;;;;;;5049583;28;20055;-75
2022/11/05 08:56:53;;;;;;;8.27;3.75;;;7.70;99.90;;;;;;5049684;28;20041;-75
2022/11/05 08:59:19;;;;;;;9.07;3.72;;;7.80;99.90;;;;;;5049671;28;20103;-72
2022/11/05 09:01:45;;;;;;;8.38;3.38;;;7.90;99.90;;;;;;5046746;28;20060;-72
2022/11/05 09:04:10;;;;;;;7.38;3.28;;;8.00;99.90;;;;;;5044337;28;20045;-73
2022/11/05 09:06:36;;;;;;;8.18;3.75;;;8.00;99.90;;;;;;5048419;28;20056;-72
2022/11/05 09:09:02;;;;;;;8.70;3.78;;;8.00;99.90;;;;;;5048570;28;20152;-71
2022/11/05 09:11:27;;;;;;;9.60;3.55;;;8.10;99.90;;;;;;5047909;28;20127;-71
2022/11/05 09:13:53;;;;;;;9.00;3.70;;;8.10;99.90;;;;;;5046821;28;20041;-71
2022/11/05 09:16:20;;;;;;;8.27;3.75;;;8.20;99.90;;;;;;5046153;28;20577;-71
2022/11/05 09:18:46;;;;;;;6.80;3.88;;;8.20;99.90;;;;;;5046689;28;20041;-72
2022/11/05 09:21:11;;;;;;;8.20;4.07;;;8.30;99.90;;;;;;5045515;28;20513;-71
2022/11/05 09:23:38;;;;;;;7.13;3.10;;;8.40;99.90;;;;;;5048128;28;20045;-71
2022/11/05 09:26:03;;;;;;;;;;;8.40;99.90;;;;;;5049138;28;20041;-71
2022/11/05 09:28:31;;;;;;;9.50;3.25;;;8.50;99.90;;;;;;5073612;28;20436;-72
2022/11/05 09:30:57;;;;;;;;;;;8.60;99.90;;;;;;5052024;28;20049;-72
2022/11/05 09:33:24;;;;;;;7.35;3.13;;;8.50;99.90;;;;;;5050058;28;19931;-71
2022/11/05 09:35:51;;;;;;;9.40;3.60;;;8.60;99.90;;;;;;5043594;28;20556;-71
2022/11/05 09:38:17;;;;;;;5.57;3.22;;;8.70;99.90;;;;;;5050944;28;20053;-71
2022/11/05 09:40:47;;;;;;;6.63;3.85;;;8.80;99.90;;;;;;5033688;28;20127;-71
2022/11/05 09:43:19;;;;;;;7.10;3.65;;;8.90;99.90;;;;;;5050116;28;20047;-71
2022/11/05 09:45:50;;;;;;;7.80;3.17;;;9.10;99.90;;;;;;5046381;28;20049;-71
2022/11/05 09:48:19;;;;;;;8.43;3.05;;;9.30;99.90;;;;;;5061437;28;20045;-71
2022/11/05 09:50:46;;;;;;;9.13;3.47;;;9.30;99.90;;;;;;5045724;28;20056;-71
2022/11/05 09:53:22;;;;;;;6.90;2.70;;;9.40;99.90;;;;;;5049158;28;20518;-71
2022/11/05 09:55:53;;;;;;;6.35;3.20;;;9.40;99.90;;;;;;5048902;28;20043;-71
2022/11/05 09:58:24;;;;;;;6.70;3.22;;;9.50;99.90;;;;;;5049370;28;20096;-71
2022/11/05 10:00:51;;;;;;;7.57;3.30;;;9.50;99.90;;;;;;5037401;28;20057;-72
2022/11/05 10:03:21;;;;;;;6.47;3.38;;;9.60;99.90;;;;;;5051156;28;20655;-74
2022/11/05 10:05:50;;;;;;;6.72;2.88;;;9.70;99.90;;;;;;5049254;28;20041;-74
2022/11/05 10:08:30;;;;;;;8.02;3.05;;;9.70;99.90;;;;;;5051411;28;20055;-74
2022/11/05 10:11:22;;;;;;;5.03;2.80;;;9.90;99.90;;;;;;5031352;28;20050;-71
2022/11/05 10:13:55;;;;;;;6.13;2.80;;;10.00;99.90;;;;;;5032949;28;20064;-72
2022/11/05 10:16:32;;;;;;;6.82;3.38;;;10.10;99.90;;;;;;5031490;28;20056;-71
2022/11/05 10:19:05;;;;;;;7.85;2.67;;;10.20;99.90;;;;;;5029745;28;20533;-71
2022/11/05 10:21:31;;;;;;;6.70;2.75;;;10.30;99.90;;;;;;5030700;28;20057;-71
2022/11/05 10:23:57;;;;;;;7.47;3.10;;;10.50;99.90;;;;;;5030068;28;20122;-71
2022/11/05 10:26:25;;;;;;;;;;;10.60;99.90;;;;;;5040949;28;20053;-71
2022/11/05 10:28:52;;;;;;;4.95;2.45;;;10.80;99.90;;;;;;5030576;28;19968;-72
2022/11/05 10:31:20;;;;;;;8.18;2.58;;;11.00;99.90;;;;;;5039289;28;20049;-71
2022/11/05 10:33:57;;;;;;;7.05;2.53;;;11.20;99.90;;;;;;5007208;28;1092073;-71
2022/11/05 10:36:25;;;;;;;5.75;2.55;;;11.40;99.90;;;;;;5037281;28;20056;-71
2022/11/05 10:38:53;;;;;;;4.75;2.45;;;11.60;99.90;;;;;;5051602;28;20052;-74
2022/11/05 10:41:52;;;;;;;5.13;2.38;;;11.90;99.90;;;;;;5044080;28;20055;-72
2022/11/05 10:44:33;;;;;;;8.73;2.45;;;12.20;99.90;;;;;;5051684;28;20482;-71
2022/11/05 10:47:23;;;;;;;5.35;2.45;;;12.60;99.90;;;;;;5051688;28;20120;-72
2022/11/05 10:50:03;;;;;;;6.28;2.55;;;13.00;99.90;;;;;;5049299;28;20079;-71
2022/11/05 10:52:36;;;;;;;5.80;2.60;;;13.30;99.90;;;;;;5050774;28;20168;-71
2022/11/05 10:55:24;;;;;;;5.70;2.58;;;13.40;99.90;;;;;;5051421;28;20049;-72
2022/11/05 10:57:50;;;;;;;4.82;2.47;;;13.50;99.90;;;;;;5051744;28;20167;-70
2022/11/05 11:00:16;;;;;;;;;;;13.50;99.90;;;;;;5049176;28;20059;-72
2022/11/05 11:02:42;;;;;;;9.55;2.65;;;13.40;99.90;;;;;;5051803;28;19928;-71
2022/11/05 11:05:10;;;;;;;8.90;2.40;;;13.60;99.90;;;;;;5048419;28;20055;-72
2022/11/05 11:07:36;;;;;;;6.07;2.40;;;13.70;99.90;;;;;;5051513;28;20138;-72
2022/11/05 11:10:02;;;;;;;4.20;2.30;;;13.90;99.90;;;;;;5046865;28;20114;-72
2022/11/05 11:12:36;;;;;;;6.22;2.22;;;14.10;99.90;;;;;;5050749;28;20071;-72
2022/11/05 11:15:12;;;;;;;8.68;3.10;;;14.30;99.90;;;;;;5050189;28;20049;-72
2022/11/05 11:17:37;;;;;;;4.07;2.10;;;14.60;99.90;;;;;;5050967;28;20126;-72
2022/11/05 11:20:12;;;;;;;;;;;14.70;99.90;;;;;;5049250;28;20818;-72
2022/11/05 11:22:38;;;;;;;4.32;1.95;;;14.80;99.90;;;;;;5050484;28;19925;-71
2022/11/05 11:25:25;;;;;;;4.47;1.92;;;14.80;99.90;;;;;;5050942;28;20053;-72
2022/11/05 11:27:52;;;;;;;4.60;2.25;;;14.80;99.90;;;;;;5051647;28;20040;-72
2022/11/05 11:30:19;;;;;;;5.03;2.30;;;14.70;99.90;;;;;;5050574;28;20049;-71
2022/11/05 11:32:46;;;;;;;6.22;2.03;;;14.70;99.90;;;;;;5046423;28;20037;-71
2022/11/05 11:35:21;;;;;;;4.13;1.98;;;14.70;99.90;;;;;;5043084;28;20521;-72
2022/11/05 11:37:47;;;;;;;5.43;2.30;;;14.80;99.90;;;;;;5048618;28;20045;-73
2022/11/05 11:40:20;;;;;;;5.88;2.28;;;14.80;99.90;;;;;;5048162;28;20048;-72
2022/11/05 11:42:49;;;;;;;4.22;2.13;;;15.00;99.90;;;;;;5049208;28;20060;-72
2022/11/05 11:45:17;;;;;;;7.05;2.20;;;15.10;99.90;;;;;;5049096;28;20557;-73
2022/11/05 11:47:46;;;;;;;5.40;2.22;;;15.70;99.90;;;;;;5048690;28;20047;-70
2022/11/05 11:50:31;;;;;;;6.50;2.10;;;16.80;99.90;;;;;;5046851;28;20045;-70
2022/11/05 11:53:28;;;;;;;4.40;2.00;;;17.70;99.90;;;;;;5047972;28;20148;-70
2022/11/05 11:55:53;;;;;;;4.00;2.17;;;17.80;99.90;;;;;;5037521;28;20698;-69
2022/11/05 11:58:20;;;;;;;;;;;17.40;99.90;;;;;;5048891;28;20045;-69
2022/11/05 12:01:07;;;;;;;4.25;2.10;;;16.80;99.90;;;;;;5047337;28;19963;-69
2022/11/05 12:03:49;;;;;;;5.07;2.20;;;16.50;99.90;;;;;;5042368;28;20110;-69
2022/11/05 12:06:30;;;;;;;6.07;2.47;;;15.90;99.90;;;;;;5046901;28;20171;-68
2022/11/05 12:09:18;;;;;;;4.43;1.80;;;15.40;99.90;;;;;;5048057;28;20084;-70
2022/11/05 12:11:44;;;;;;;7.32;2.42;;;15.00;99.90;;;;;;5043629;28;20041;-70
2022/11/05 12:14:27;;;;;;;7.53;2.30;;;14.50;99.90;;;;;;5047276;28;20052;-70
2022/11/05 12:16:55;;;;;;;8.60;3.20;;;14.00;99.90;;;;;;5047449;28;20143;-70
2022/11/05 12:19:59;;;;;;;6.07;2.88;;;13.70;99.90;;;;;;5045040;28;20352;-70
2022/11/05 12:22:33;;;;;;;10.40;2.30;;;13.50;99.90;;;;;;5047279;28;20049;-70
2022/11/05 12:25:16;;;;;;;8.10;2.60;;;13.20;99.90;;;;;;5046307;28;20152;-71
2022/11/05 12:27:54;;;;;;;6.85;2.67;;;13.00;99.90;;;;;;5047012;28;20037;-70
2022/11/05 12:30:21;;;;;;;7.32;2.80;;;12.70;99.90;;;;;;5045191;28;20080;-70
2022/11/05 12:33:17;;;;;;;8.63;2.83;;;12.40;99.90;;;;;;5044824;28;20053;-70
2022/11/05 12:36:01;;;;;;;7.90;2.75;;;12.20;99.90;;;;;;5043986;28;20881;-70
2022/11/05 12:38:51;;;;;;;8.60;2.92;;;12.00;99.90;;;;;;5045498;28;20052;-70
2022/11/05 12:41:25;;;;;;;7.00;2.72;;;11.90;99.90;;;;;;5045567;28;20040;-70
2022/11/05 12:44:05;;;;;;;6.07;2.90;;;11.90;99.90;;;;;;5064302;28;20044;-70
2022/11/05 12:46:31;;;;;;;7.22;2.90;;;11.90;99.90;;;;;;5050156;28;20045;-70
2022/11/05 12:49:29;;;;;;;5.85;2.53;;;12.00;99.90;;;;;;5049123;28;20045;-72
2022/11/05 12:52:21;;;;;;;5.85;3.58;;;12.00;99.90;;;;;;5047229;28;20061;-70
2022/11/05 12:55:03;;;;;;;13.27;2.78;;;12.00;99.90;;;;;;5031563;28;20831;-70
2022/11/05 12:57:31;;;;;;;7.88;2.90;;;12.00;99.90;;;;;;5041703;28;20124;-70
2022/11/05 13:00:07;;;;;;;7.63;2.90;;;12.00;99.90;;;;;;5029922;28;20802;-70
2022/11/05 13:02:57;;;;;;;8.10;3.05;;;12.00;99.90;;;;;;5042558;28;20494;-70
2022/11/05 13:05:40;;;;;;;4.57;2.60;;;12.10;99.90;;;;;;5050270;28;20052;-70
2022/11/05 13:08:16;;;;;;;6.60;2.75;;;12.10;99.90;;;;;;5054069;28;20049;-70
2022/11/05 13:10:50;;;;;;;10.05;3.83;;;12.10;99.90;;;;;;5041125;28;20045;-69
2022/11/05 13:13:22;;;;;;;11.32;3.35;;;12.10;99.90;;;;;;5033751;28;20053;-71
2022/11/05 13:16:29;;;;;;;7.38;2.92;;;12.00;99.90;;;;;;5065558;28;20104;-70
2022/11/05 13:19:14;;;;;;;6.95;2.60;;;12.10;99.90;;;;;;5038523;28;20056;-70
2022/11/05 13:21:41;;;;;;;6.60;2.90;;;12.10;99.90;;;;;;5053699;28;20132;-70
2022/11/05 13:24:17;;;;;;;7.38;3.28;;;12.10;99.90;;;;;;5052342;28;20095;-71
2022/11/05 13:27:03;;;;;;;12.23;3.60;;;12.20;99.90;;;;;;5083919;28;20127;-70
2022/11/05 13:29:46;;;;;;;6.60;3.47;;;12.20;99.90;;;;;;5048439;28;20049;-70
2022/11/05 13:32:23;;;;;;;14.50;3.42;;;12.20;99.90;;;;;;5041530;28;20124;-70
2022/11/05 13:34:53;;;;;;;9.55;3.78;;;12.30;99.90;;;;;;5050011;28;20581;-70
2022/11/05 13:40:14;;;;;;;6.60;2.78;;;12.30;99.90;;;;;;5053000;28;20053;-71
2022/11/05 13:42:58;;;;;;;5.75;2.78;;;12.20;99.90;;;;;;5050911;28;20464;-70
2022/11/05 13:45:33;;;;;;;9.63;3.25;;;12.20;99.90;;;;;;5052512;28;20509;-74
2022/11/05 13:48:17;;;;;;;5.75;2.80;;;12.20;99.90;;;;;;5052301;28;20071;-70
2022/11/05 13:51:13;;;;;;;8.00;2.75;;;12.10;99.90;;;;;;5050044;28;20100;-70
2022/11/05 13:54:00;;;;;;;8.77;2.92;;;12.10;99.90;;;;;;5052255;28;20041;-70
2022/11/05 13:56:35;;;;;;;6.82;2.83;;;12.00;99.90;;;;;;5049923;28;20613;-69
2022/11/05 13:59:28;;;;;;;6.68;3.40;;;11.90;99.90;;;;;;5037863;28;20051;-72
2022/11/05 14:01:57;;;;;;;7.47;3.15;;;11.80;99.90;;;;;;5033119;28;20048;-77
2022/11/05 14:04:45;;;;;;;7.50;3.30;;;11.80;99.90;;;;;;5032064;28;20521;-70